createdAt,value
2017-07-05T00:01:04.369Z,75.10
2017-07-05T00:03:32.608Z,74.90
2017-07-05T00:06:00.818Z,75.10
2017-07-05T00:08:29.063Z,75.20
2017-07-05T00:10:58.059Z,75.20
2017-07-05T00:13:26.241Z,75.10
2017-07-05T00:15:54.508Z,75.20
2017-07-05T00:18:23.516Z,75.30
2017-07-05T00:20:51.723Z,75.30
2017-07-05T00:23:20.163Z,75.20
2017-07-05T00:25:49.140Z,75.50
2017-07-05T00:28:17.351Z,75.50
2017-07-05T00:30:45.555Z,75.60
2017-07-05T00:33:13.765Z,75.70
2017-07-05T00:35:41.974Z,75.50
2017-07-05T00:38:10.173Z,75.50
2017-07-05T00:40:38.378Z,75.60
2017-07-05T00:43:06.585Z,75.80
2017-07-05T00:45:35.561Z,75.60
2017-07-05T00:48:03.757Z,75.60
2017-07-05T00:50:31.970Z,75.50
2017-07-05T00:53:00.324Z,75.90
2017-07-05T00:55:28.514Z,75.90
2017-07-05T00:57:56.723Z,75.80
2017-07-05T01:00:24.944Z,75.80
2017-07-05T01:02:53.230Z,76.00
2017-07-05T01:05:21.442Z,76.30
2017-07-05T01:07:49.654Z,76.50
2017-07-05T01:10:17.869Z,76.50
2017-07-05T01:12:46.065Z,76.40
2017-07-05T01:15:14.290Z,76.50
2017-07-05T01:17:42.487Z,76.30
2017-07-05T01:20:10.745Z,76.60
2017-07-05T01:22:39.731Z,76.60
2017-07-05T01:25:07.943Z,76.50
2017-07-05T01:27:36.206Z,76.80
2017-07-05T01:30:04.454Z,76.80
2017-07-05T01:32:32.641Z,76.90
2017-07-05T01:35:00.829Z,76.90
2017-07-05T01:37:29.051Z,76.90
2017-07-05T01:39:57.277Z,76.90
2017-07-05T01:42:25.473Z,76.90
2017-07-05T01:44:53.677Z,76.90
2017-07-05T01:47:22.003Z,76.90
2017-07-05T01:49:50.994Z,76.90
2017-07-05T01:52:19.197Z,76.90
2017-07-05T01:54:47.415Z,77.00
2017-07-05T01:57:15.620Z,77.20
2017-07-05T01:59:43.840Z,77.00
2017-07-05T02:02:12.061Z,77.20
2017-07-05T02:04:40.286Z,77.10
2017-07-05T02:07:08.494Z,77.20
2017-07-05T02:09:36.922Z,77.40
2017-07-05T02:12:05.123Z,77.60
2017-07-05T02:14:33.343Z,77.90
2017-07-05T02:17:01.576Z,77.60
2017-07-05T02:19:29.816Z,77.80
2017-07-05T02:21:58.095Z,77.80
2017-07-05T02:24:26.328Z,77.90
2017-07-05T02:26:54.542Z,77.90
2017-07-05T02:29:22.935Z,78.20
2017-07-05T02:31:51.192Z,78.30
2017-07-05T02:34:20.174Z,79.00
2017-07-05T02:36:48.384Z,78.20
2017-07-05T02:39:16.647Z,78.30
2017-07-05T02:41:45.618Z,78.70
2017-07-05T02:44:13.829Z,78.50
2017-07-05T02:46:42.797Z,78.50
2017-07-05T02:49:11.001Z,78.40
2017-07-05T02:51:39.970Z,78.60
2017-07-05T02:54:08.187Z,78.60
2017-07-05T02:56:36.547Z,78.60
2017-07-05T02:59:04.921Z,78.60
2017-07-05T03:01:33.991Z,78.40
2017-07-05T03:04:02.198Z,78.40
2017-07-05T03:06:30.406Z,78.40
2017-07-05T03:08:58.605Z,78.50
2017-07-05T03:11:26.807Z,78.40
2017-07-05T03:13:55.042Z,78.50
2017-07-05T03:16:23.266Z,78.60
2017-07-05T03:18:52.235Z,78.70
2017-07-05T03:21:20.434Z,78.70
2017-07-05T03:23:49.423Z,78.90
2017-07-05T03:26:17.644Z,78.60
2017-07-05T03:28:45.882Z,78.50
2017-07-05T03:31:14.999Z,79.30
2017-07-05T03:33:43.207Z,78.70
2017-07-05T03:36:11.419Z,78.80
2017-07-05T03:38:39.637Z,78.80
2017-07-05T03:41:07.851Z,78.80
2017-07-05T03:43:36.054Z,78.80
2017-07-05T03:46:04.264Z,78.80
2017-07-05T03:48:32.454Z,78.80
2017-07-05T03:51:00.660Z,78.80
2017-07-05T03:53:28.858Z,78.40
2017-07-05T03:55:57.058Z,78.20
2017-07-05T03:58:25.266Z,78.40
2017-07-05T04:00:53.486Z,77.90
2017-07-05T04:03:21.794Z,78.00
2017-07-05T04:05:49.995Z,77.80
2017-07-05T04:08:18.202Z,78.00
2017-07-05T04:10:46.508Z,77.70
2017-07-05T04:13:14.719Z,77.50
2017-07-05T04:15:42.968Z,77.20
2017-07-05T04:18:11.171Z,77.00
2017-07-05T04:20:39.537Z,77.10
2017-07-05T04:23:07.738Z,77.10
2017-07-05T04:25:35.972Z,76.80
2017-07-05T04:28:04.162Z,76.80
2017-07-05T04:30:32.380Z,76.50
2017-07-05T04:33:00.704Z,76.30
2017-07-05T04:35:28.973Z,75.90
2017-07-05T04:37:57.946Z,75.90
2017-07-05T04:40:26.147Z,75.90
2017-07-05T04:42:55.119Z,75.50
2017-07-05T04:45:23.332Z,75.40
2017-07-05T04:47:51.543Z,75.40
2017-07-05T04:50:19.761Z,75.20
2017-07-05T04:52:47.966Z,75.10
2017-07-05T04:55:16.182Z,74.60
2017-07-05T04:57:44.505Z,74.30
2017-07-05T05:00:12.997Z,74.10
2017-07-05T05:02:41.199Z,73.90
2017-07-05T05:05:09.408Z,73.50
2017-07-05T05:07:37.706Z,73.50
2017-07-05T05:10:05.915Z,73.40
2017-07-05T05:12:34.126Z,73.20
2017-07-05T05:15:02.328Z,73.10
2017-07-05T05:17:30.544Z,72.70
2017-07-05T05:19:58.749Z,72.60
2017-07-05T05:22:26.957Z,72.90
2017-07-05T05:24:55.165Z,72.70
2017-07-05T05:27:23.357Z,68.90
2017-07-05T05:29:51.646Z,65.70
2017-07-05T05:32:19.858Z,62.00
2017-07-05T05:34:48.059Z,59.60
2017-07-05T05:37:16.266Z,55.30
2017-07-05T05:39:44.455Z,52.50
2017-07-05T05:42:12.667Z,49.30
2017-07-05T05:44:41.643Z,44.90
2017-07-05T05:47:09.861Z,44.90
2017-07-05T05:49:38.841Z,41.70
2017-07-05T05:52:07.040Z,41.60
2017-07-05T05:54:35.293Z,40.60
2017-07-05T05:57:04.477Z,41.80
2017-07-05T05:59:32.642Z,41.80
2017-07-05T06:02:00.901Z,41.00
2017-07-05T06:04:29.225Z,40.00
2017-07-05T06:06:58.208Z,36.50
2017-07-05T06:09:26.402Z,36.50
2017-07-05T06:11:54.647Z,34.20
2017-07-05T06:14:22.907Z,33.70
2017-07-05T06:16:51.066Z,32.60
2017-07-05T06:19:19.285Z,32.00
2017-07-05T06:21:47.493Z,32.20
2017-07-05T06:24:15.708Z,31.90
2017-07-05T06:26:43.930Z,31.30
2017-07-05T06:29:12.895Z,30.00
2017-07-05T06:31:41.103Z,30.00
2017-07-05T06:34:09.294Z,29.20
2017-07-05T06:36:37.498Z,28.60
2017-07-05T06:39:05.715Z,29.90
2017-07-05T06:41:34.678Z,29.30
2017-07-05T06:44:02.893Z,29.20
2017-07-05T06:46:31.860Z,29.10
2017-07-05T06:49:00.066Z,29.00
2017-07-05T06:51:29.060Z,26.50
2017-07-05T06:53:57.257Z,26.50
2017-07-05T06:56:25.465Z,25.80
2017-07-05T06:58:53.682Z,25.30
2017-07-05T07:01:21.886Z,25.00
2017-07-05T07:03:50.094Z,24.80
2017-07-05T07:06:18.361Z,24.70
2017-07-05T07:08:46.577Z,25.90
2017-07-05T07:11:14.769Z,24.90
2017-07-05T07:13:43.752Z,24.20
2017-07-05T07:16:11.968Z,24.20
2017-07-05T07:18:40.242Z,24.40
2017-07-05T07:21:08.476Z,24.90
2017-07-05T07:23:36.686Z,24.20
2017-07-05T07:26:05.067Z,23.80
2017-07-05T07:28:33.345Z,23.60
2017-07-05T07:31:01.552Z,24.80
2017-07-05T07:33:29.783Z,23.50
2017-07-05T07:35:57.979Z,24.70
2017-07-05T07:38:26.191Z,23.30
2017-07-05T07:40:54.400Z,22.90
2017-07-05T07:43:22.584Z,22.90
2017-07-05T07:45:50.866Z,23.10
2017-07-05T07:48:19.087Z,22.40
2017-07-05T07:50:47.303Z,22.30
2017-07-05T07:53:15.511Z,22.40
2017-07-05T07:55:43.713Z,22.40
2017-07-05T07:58:11.926Z,22.20
2017-07-05T08:00:40.914Z,22.00
2017-07-05T08:03:09.110Z,22.00
2017-07-05T08:05:38.086Z,21.50
2017-07-05T08:08:06.283Z,21.50
2017-07-05T08:10:35.282Z,22.70
2017-07-05T08:13:03.473Z,22.30
2017-07-05T08:15:31.724Z,22.40
2017-07-05T08:17:59.945Z,22.00
2017-07-05T08:20:28.142Z,21.80
2017-07-05T08:22:56.590Z,21.70
2017-07-05T08:25:25.783Z,21.60
2017-07-05T08:27:53.969Z,21.60
2017-07-05T08:30:22.173Z,21.70
2017-07-05T08:32:50.381Z,20.80
2017-07-05T08:35:18.605Z,20.50
2017-07-05T08:37:46.860Z,21.20
2017-07-05T08:40:15.026Z,22.00
2017-07-05T08:42:43.329Z,22.30
2017-07-05T08:45:11.537Z,22.30
2017-07-05T08:47:39.738Z,22.40
2017-07-05T08:50:07.956Z,21.50
2017-07-05T08:52:36.213Z,21.90
2017-07-05T08:55:04.617Z,21.60
2017-07-05T08:57:33.879Z,22.00
2017-07-05T09:00:03.112Z,21.40
2017-07-05T09:02:32.409Z,20.40
2017-07-05T09:05:01.669Z,21.90
2017-07-05T09:07:30.875Z,21.40
2017-07-05T09:10:00.262Z,21.10
2017-07-05T09:12:29.169Z,22.50
2017-07-05T09:14:58.796Z,21.80
2017-07-05T09:17:28.138Z,22.70
2017-07-05T09:19:57.406Z,20.80
2017-07-05T09:22:26.604Z,22.60
2017-07-05T09:24:56.618Z,23.80
2017-07-05T09:27:25.679Z,23.90
2017-07-05T09:29:55.159Z,24.80
2017-07-05T09:32:24.421Z,23.40
2017-07-05T09:34:53.938Z,22.10
2017-07-05T09:37:23.491Z,23.30
2017-07-05T09:39:51.720Z,22.30
2017-07-05T09:42:19.942Z,21.50
2017-07-05T09:44:48.139Z,21.40
2017-07-05T09:47:16.391Z,21.40
2017-07-05T09:49:44.662Z,22.30
2017-07-05T09:52:12.913Z,23.20
2017-07-05T09:54:41.105Z,23.10
2017-07-05T09:57:09.297Z,21.10
2017-07-05T09:59:37.544Z,23.10
2017-07-05T10:02:05.753Z,22.90
2017-07-05T10:04:33.942Z,25.40
2017-07-05T10:09:36.834Z,21.40
2017-07-05T10:12:05.034Z,20.50
2017-07-05T10:14:33.240Z,21.50
2017-07-05T10:17:01.465Z,20.10
2017-07-05T10:19:29.681Z,20.90
2017-07-05T10:21:57.878Z,19.90
2017-07-05T10:24:26.087Z,19.90
2017-07-05T10:26:54.348Z,19.60
2017-07-05T10:29:22.563Z,20.00
2017-07-05T10:31:50.762Z,19.40
2017-07-05T10:34:18.993Z,19.70
2017-07-05T10:36:47.190Z,19.90
2017-07-05T10:39:15.398Z,19.30
2017-07-05T10:41:43.617Z,19.90
2017-07-05T10:44:11.839Z,20.80
2017-07-05T10:46:40.051Z,20.80
2017-07-05T10:49:08.254Z,20.70
2017-07-05T10:51:36.513Z,21.40
2017-07-05T10:54:04.742Z,20.90
2017-07-05T10:56:32.968Z,23.20
2017-07-05T10:59:01.338Z,23.90
2017-07-05T11:01:30.328Z,19.70
2017-07-05T11:03:58.522Z,19.60
2017-07-05T11:06:26.714Z,22.80
2017-07-05T11:08:55.194Z,20.90
2017-07-05T11:11:23.443Z,21.50
2017-07-05T11:13:51.657Z,22.80
2017-07-05T11:16:19.870Z,23.10
2017-07-05T11:18:48.071Z,27.70
2017-07-05T11:21:17.051Z,25.60
2017-07-05T11:23:45.240Z,25.60
2017-07-05T11:26:14.211Z,28.20
2017-07-05T11:28:42.429Z,28.10
2017-07-05T11:31:10.641Z,27.50
2017-07-05T11:33:38.895Z,30.50
2017-07-05T11:36:07.160Z,28.10
2017-07-05T11:38:36.126Z,32.90
2017-07-05T11:41:04.378Z,33.10
2017-07-05T11:43:32.566Z,30.60
2017-07-05T11:46:00.778Z,32.70
2017-07-05T11:48:28.976Z,33.20
2017-07-05T11:50:57.239Z,30.90
2017-07-05T11:53:26.217Z,32.40
2017-07-05T11:55:54.414Z,32.40
2017-07-05T11:58:23.398Z,31.70
2017-07-05T12:00:51.598Z,31.70
2017-07-05T12:03:19.804Z,30.40
2017-07-05T12:05:48.127Z,31.10
2017-07-05T12:08:17.090Z,30.90
2017-07-05T12:10:45.300Z,30.90
2017-07-05T12:13:14.266Z,30.00
2017-07-05T12:15:42.466Z,29.90
2017-07-05T12:18:11.434Z,31.40
2017-07-05T12:20:39.633Z,31.60
2017-07-05T12:23:08.620Z,30.50
2017-07-05T12:25:36.819Z,29.90
2017-07-05T12:28:05.121Z,29.20
2017-07-05T12:30:33.357Z,31.70
2017-07-05T12:33:01.519Z,29.70
2017-07-05T12:35:29.752Z,30.70
2017-07-05T12:37:57.930Z,30.10
2017-07-05T12:40:26.971Z,29.20
2017-07-05T12:42:55.157Z,29.20
2017-07-05T12:45:23.350Z,30.70
2017-07-05T12:47:51.560Z,29.40
2017-07-05T12:50:19.754Z,33.30
2017-07-05T12:52:48.028Z,29.00
2017-07-05T12:55:16.280Z,28.20
2017-07-05T12:57:44.552Z,28.30
2017-07-05T13:00:12.796Z,28.70
2017-07-05T13:02:41.197Z,29.00
2017-07-05T13:05:09.483Z,29.00
2017-07-05T13:07:37.689Z,29.80
2017-07-05T13:10:05.910Z,28.40
2017-07-05T13:12:34.154Z,31.20
2017-07-05T13:15:02.353Z,30.90
2017-07-05T13:17:30.562Z,28.70
2017-07-05T13:19:58.777Z,29.00
2017-07-05T13:22:27.749Z,30.00
2017-07-05T13:24:56.167Z,30.00
2017-07-05T13:27:24.357Z,29.10
2017-07-05T13:29:52.857Z,29.80
2017-07-05T13:32:21.176Z,29.30
2017-07-05T13:34:49.383Z,29.60
2017-07-05T13:37:17.593Z,30.00
2017-07-05T13:39:45.847Z,28.30
2017-07-05T13:42:14.091Z,29.10
2017-07-05T13:44:42.320Z,28.80
2017-07-05T13:47:10.518Z,29.00
2017-07-05T13:49:38.711Z,29.40
2017-07-05T13:52:06.930Z,29.40
2017-07-05T13:54:35.142Z,29.20
2017-07-05T13:57:03.334Z,31.40
2017-07-05T13:59:31.556Z,32.10
2017-07-05T14:01:59.781Z,29.90
2017-07-05T14:04:28.058Z,28.60
2017-07-05T14:06:56.295Z,28.40
2017-07-05T14:09:24.623Z,28.50
2017-07-05T14:11:52.837Z,29.10
2017-07-05T14:14:21.046Z,29.20
2017-07-05T14:16:49.258Z,28.50
2017-07-05T14:19:17.469Z,28.90
2017-07-05T14:21:45.766Z,28.90
2017-07-05T14:24:14.073Z,29.10
2017-07-05T14:26:43.046Z,29.30
2017-07-05T14:29:11.264Z,29.30
2017-07-05T14:31:39.482Z,30.00
2017-07-05T14:34:07.688Z,29.90
2017-07-05T14:36:35.904Z,30.30
2017-07-05T14:39:04.128Z,31.20
2017-07-05T14:41:32.331Z,29.80
2017-07-05T14:44:01.309Z,35.50
2017-07-05T14:46:29.519Z,35.30
2017-07-05T14:48:57.816Z,33.50
2017-07-05T14:51:26.051Z,31.30
2017-07-05T14:53:55.017Z,30.10
2017-07-05T14:56:23.240Z,30.10
2017-07-05T14:58:51.448Z,30.00
2017-07-05T15:01:19.657Z,30.20
2017-07-05T15:03:48.653Z,31.50
2017-07-05T15:06:16.879Z,31.00
2017-07-05T15:08:45.102Z,30.00
2017-07-05T15:11:13.300Z,31.10
2017-07-05T15:13:41.527Z,32.60
2017-07-05T15:16:09.734Z,32.40
2017-07-05T15:18:37.964Z,32.00
2017-07-05T15:21:06.177Z,33.70
2017-07-05T15:23:34.455Z,34.10
2017-07-05T15:26:02.661Z,33.70
2017-07-05T15:28:30.878Z,31.30
2017-07-05T15:30:59.278Z,35.50
2017-07-05T15:33:27.566Z,31.20
2017-07-05T15:35:55.763Z,32.80
2017-07-05T15:38:23.987Z,34.90
2017-07-05T15:40:52.212Z,35.50
2017-07-05T15:43:20.401Z,32.80
2017-07-05T15:45:48.614Z,35.20
2017-07-05T15:48:16.844Z,34.80
2017-07-05T15:50:45.925Z,35.10
2017-07-05T15:53:14.941Z,38.10
2017-07-05T15:55:43.161Z,37.50
2017-07-05T15:58:11.362Z,39.30
2017-07-05T16:00:39.583Z,41.10
2017-07-05T16:03:07.785Z,41.80
2017-07-05T16:05:36.006Z,43.30
2017-07-05T16:08:04.977Z,44.90
2017-07-05T16:10:33.176Z,45.20
2017-07-05T16:13:02.155Z,48.20
2017-07-05T16:15:30.360Z,48.20
2017-07-05T16:17:58.643Z,47.20
2017-07-05T16:20:26.891Z,46.90
2017-07-05T16:22:55.850Z,46.40
2017-07-05T16:25:24.289Z,46.70
2017-07-05T16:27:52.565Z,46.70
2017-07-05T16:30:20.853Z,47.50
2017-07-05T16:32:49.066Z,47.40
2017-07-05T16:35:17.281Z,46.50
2017-07-05T16:37:45.660Z,45.90
2017-07-05T16:40:13.941Z,45.90
2017-07-05T16:42:42.936Z,41.40
2017-07-05T16:45:11.140Z,41.50
2017-07-05T16:47:39.334Z,45.40
2017-07-05T16:50:07.550Z,44.70
2017-07-05T16:52:35.746Z,47.00
2017-07-05T16:55:03.965Z,47.90
2017-07-05T16:57:32.173Z,49.00
2017-07-05T17:00:00.379Z,49.70
2017-07-05T17:02:28.635Z,50.20
2017-07-05T17:04:56.855Z,50.50
2017-07-05T17:07:25.063Z,51.10
2017-07-05T17:09:53.269Z,50.50
2017-07-05T17:12:22.239Z,50.90
2017-07-05T17:14:50.452Z,50.80
2017-07-05T17:17:18.663Z,50.10
2017-07-05T17:19:46.992Z,49.60
2017-07-05T17:22:15.966Z,49.90
2017-07-05T17:24:44.170Z,49.40
2017-07-05T17:27:12.447Z,49.40
2017-07-05T17:29:41.423Z,48.70
2017-07-05T17:32:09.626Z,48.80
2017-07-05T17:34:37.839Z,49.70
2017-07-05T17:37:06.058Z,50.70
2017-07-05T17:39:34.274Z,50.50
2017-07-05T17:42:02.475Z,50.60
2017-07-05T17:44:30.679Z,51.50
2017-07-05T17:46:58.886Z,50.60
2017-07-05T17:49:27.135Z,51.10
2017-07-05T17:51:55.409Z,52.20
2017-07-05T17:54:23.616Z,51.60
2017-07-05T17:56:51.832Z,50.70
2017-07-05T17:59:20.039Z,51.80
2017-07-05T18:01:48.332Z,51.40
2017-07-05T18:04:17.318Z,53.40
2017-07-05T18:06:45.717Z,53.50
2017-07-05T18:09:14.020Z,52.60
2017-07-05T18:11:42.248Z,54.10
2017-07-05T18:14:10.439Z,53.40
2017-07-05T18:16:38.908Z,53.90
2017-07-05T18:19:07.081Z,53.30
2017-07-05T18:21:35.304Z,54.00
2017-07-05T18:24:03.502Z,54.00
2017-07-05T18:26:31.756Z,54.30
2017-07-05T18:28:59.956Z,55.00
2017-07-05T18:31:28.180Z,53.90
2017-07-05T18:33:56.385Z,54.10
2017-07-05T18:36:24.599Z,54.10
2017-07-05T18:38:52.826Z,54.10
2017-07-05T18:41:21.028Z,54.90
2017-07-05T18:43:49.284Z,55.30
2017-07-05T18:46:17.476Z,55.20
2017-07-05T18:48:45.668Z,55.70
2017-07-05T18:51:13.924Z,56.30
2017-07-05T18:53:42.248Z,54.90
2017-07-05T18:56:10.395Z,57.20
2017-07-05T18:58:38.597Z,56.70
2017-07-05T19:01:07.002Z,58.20
2017-07-05T19:03:35.987Z,57.60
2017-07-05T19:06:04.197Z,57.60
2017-07-05T19:08:32.430Z,58.20
2017-07-05T19:11:01.411Z,59.10
2017-07-05T19:13:29.635Z,58.90
2017-07-05T19:15:57.846Z,59.10
2017-07-05T19:18:26.158Z,59.10
2017-07-05T19:20:55.134Z,58.80
2017-07-05T19:23:23.368Z,59.30
2017-07-05T19:25:51.573Z,59.30
2017-07-05T19:28:19.980Z,60.20
2017-07-05T19:30:48.153Z,60.00
2017-07-05T19:33:17.146Z,58.50
2017-07-05T19:35:45.374Z,58.90
2017-07-05T19:38:13.583Z,60.60
2017-07-05T19:40:41.805Z,58.40
2017-07-05T19:43:10.023Z,61.40
2017-07-05T19:45:38.242Z,60.50
2017-07-05T19:48:07.232Z,61.20
2017-07-05T19:50:35.407Z,61.20
2017-07-05T19:53:04.447Z,60.10
2017-07-05T19:55:32.675Z,60.90
2017-07-05T19:58:00.898Z,59.40
2017-07-05T20:00:29.253Z,62.60
2017-07-05T20:02:57.467Z,58.70
2017-07-05T20:05:25.706Z,59.60
2017-07-05T20:07:53.913Z,59.40
2017-07-05T20:10:22.136Z,60.00
2017-07-05T20:12:50.357Z,59.70
2017-07-05T20:15:18.543Z,59.80
2017-07-05T20:17:46.779Z,59.40
2017-07-05T20:20:15.744Z,60.10
2017-07-05T20:22:43.968Z,60.00
2017-07-05T20:25:12.235Z,58.70
2017-07-05T20:27:40.457Z,59.40
2017-07-05T20:30:08.679Z,60.70
2017-07-05T20:32:36.873Z,59.00
2017-07-05T20:35:05.214Z,59.80
2017-07-05T20:37:33.406Z,61.80
2017-07-05T20:40:02.375Z,61.80
2017-07-05T20:42:30.694Z,61.80
2017-07-05T20:44:58.903Z,60.50
2017-07-05T20:47:27.141Z,61.30
2017-07-05T20:49:55.422Z,61.90
2017-07-05T20:52:23.696Z,61.10
2017-07-05T20:54:51.902Z,61.60
2017-07-05T20:57:20.117Z,61.00
2017-07-05T20:59:48.318Z,61.20
2017-07-05T21:02:16.622Z,61.40
2017-07-05T21:04:44.874Z,61.60
2017-07-05T21:07:13.364Z,62.40
2017-07-05T21:09:41.572Z,62.00
2017-07-05T21:12:09.792Z,62.50
2017-07-05T21:14:38.011Z,61.90
2017-07-05T21:17:06.203Z,61.20
2017-07-05T21:19:34.539Z,61.50
2017-07-05T21:22:03.519Z,61.40
2017-07-05T21:24:31.718Z,61.20
2017-07-05T21:26:59.920Z,62.20
2017-07-05T21:29:28.126Z,62.60
2017-07-05T21:31:56.332Z,62.30
2017-07-05T21:34:24.618Z,62.90
2017-07-05T21:36:53.707Z,64.00
2017-07-05T21:39:22.805Z,63.20
2017-07-05T21:41:51.774Z,63.20
2017-07-05T21:44:19.976Z,63.20
2017-07-05T21:46:48.964Z,63.10
2017-07-05T21:49:17.169Z,63.10
2017-07-05T21:51:45.401Z,63.80
2017-07-05T21:54:13.707Z,64.20
2017-07-05T21:56:42.685Z,64.20
2017-07-05T21:59:10.894Z,64.10
2017-07-05T22:01:39.162Z,64.60
2017-07-05T22:04:07.429Z,64.40
2017-07-05T22:06:36.518Z,64.30
2017-07-05T22:09:05.497Z,65.10
2017-07-05T22:11:33.717Z,65.00
2017-07-05T22:14:01.917Z,65.20
2017-07-05T22:16:30.125Z,64.80
2017-07-05T22:18:58.527Z,65.10
2017-07-05T22:21:27.510Z,65.10
2017-07-05T22:23:55.718Z,65.10
2017-07-05T22:26:23.996Z,65.70
2017-07-05T22:28:52.264Z,65.80
2017-07-05T22:31:20.507Z,66.50
2017-07-05T22:33:48.718Z,66.70
2017-07-05T22:36:16.925Z,67.10
2017-07-05T22:38:45.144Z,67.50
2017-07-05T22:41:13.345Z,66.60
2017-07-05T22:43:41.547Z,66.90
2017-07-05T22:46:09.786Z,67.00
2017-07-05T22:48:38.750Z,67.70
2017-07-05T22:51:06.958Z,67.70
2017-07-05T22:53:35.158Z,68.00
2017-07-05T22:56:03.381Z,68.00
2017-07-05T22:58:31.593Z,67.40
2017-07-05T23:00:59.819Z,68.00
2017-07-05T23:03:28.137Z,67.90
2017-07-05T23:05:57.148Z,68.60
2017-07-05T23:08:25.439Z,68.60
2017-07-05T23:10:53.637Z,68.30
2017-07-05T23:13:21.860Z,68.20
2017-07-05T23:15:50.824Z,69.10
2017-07-05T23:18:19.235Z,68.40
2017-07-05T23:20:48.203Z,68.30
2017-07-05T23:23:16.610Z,68.30
2017-07-05T23:25:44.904Z,68.40
2017-07-05T23:28:13.180Z,68.00
2017-07-05T23:30:41.404Z,68.40
2017-07-05T23:33:09.603Z,68.20
2017-07-05T23:35:37.842Z,68.50
2017-07-05T23:38:06.053Z,68.70
2017-07-05T23:40:35.044Z,68.90
2017-07-05T23:43:03.264Z,68.80
2017-07-05T23:45:31.537Z,69.00
2017-07-05T23:47:59.749Z,68.60
2017-07-05T23:50:27.937Z,68.70
2017-07-05T23:52:56.131Z,68.80
2017-07-05T23:55:24.404Z,68.70
2017-07-05T23:57:52.568Z,68.90
